createdAt,value
2019-02-12T00:00:29.263Z,4.20
2019-02-12T00:02:59.506Z,4.50
2019-02-12T00:05:30.249Z,4.70
2019-02-12T00:08:00.464Z,4.80
2019-02-12T00:10:31.261Z,4.90
2019-02-12T00:13:01.569Z,4.90
2019-02-12T00:15:33.873Z,5.00
2019-02-12T00:18:04.145Z,4.90
2019-02-12T00:20:34.934Z,4.80
2019-02-12T00:23:05.707Z,4.50
2019-02-12T00:25:37.544Z,4.90
2019-02-12T00:28:08.681Z,4.90
2019-02-12T00:30:39.024Z,5.00
2019-02-12T00:33:10.614Z,5.00
2019-02-12T00:43:10.670Z,4.90
2019-02-12T00:45:40.982Z,6.90
2019-02-12T00:48:12.831Z,4.90
2019-02-12T00:50:45.491Z,4.90
2019-02-12T00:53:16.057Z,4.90
2019-02-12T00:55:46.501Z,4.90
2019-02-12T00:58:18.999Z,4.80
2019-02-12T01:03:19.810Z,5.60
2019-02-12T01:05:50.061Z,4.80
2019-02-12T01:08:20.540Z,4.80
2019-02-12T01:13:20.779Z,4.80
2019-02-12T01:15:51.325Z,4.80
2019-02-12T01:18:26.080Z,4.70
2019-02-12T01:20:56.718Z,4.70
2019-02-12T01:23:27.111Z,4.60
2019-02-12T01:25:58.598Z,4.70
2019-02-12T01:28:28.826Z,4.70
2019-02-12T01:30:59.133Z,4.60
2019-02-12T01:33:29.422Z,4.60
2019-02-12T01:35:59.570Z,4.60
2019-02-12T01:38:32.666Z,5.40
2019-02-12T01:41:03.695Z,4.70
2019-02-12T01:48:37.568Z,4.60
2019-02-12T01:51:08.174Z,4.60
2019-02-12T01:53:38.806Z,5.60
2019-02-12T01:56:09.135Z,4.60
2019-02-12T01:58:40.800Z,4.50
2019-02-12T02:01:11.024Z,4.50
2019-02-12T02:03:41.238Z,4.70
2019-02-12T02:06:11.559Z,4.70
2019-02-12T02:08:41.794Z,4.70
2019-02-12T02:11:12.641Z,4.90
2019-02-12T02:13:42.985Z,4.50
2019-02-12T02:16:17.018Z,5.20
2019-02-12T02:18:47.366Z,5.10
2019-02-12T02:21:19.029Z,5.00
2019-02-12T02:26:19.264Z,5.20
2019-02-12T02:36:19.342Z,5.10
2019-02-12T02:41:21.048Z,5.00
2019-02-12T02:43:51.370Z,5.60
2019-02-12T02:46:21.975Z,5.00
2019-02-12T02:48:52.343Z,5.00
2019-02-12T02:51:22.644Z,4.90
2019-02-12T02:53:52.854Z,4.90
2019-02-12T02:56:23.479Z,4.90
2019-02-12T02:58:53.697Z,4.90
2019-02-12T03:01:24.273Z,4.90
2019-02-12T03:03:54.924Z,4.80
2019-02-12T03:11:25.332Z,4.80
2019-02-12T03:16:25.585Z,4.80
2019-02-12T03:26:25.288Z,4.60
2019-02-12T03:33:55.304Z,4.70
2019-02-12T03:36:25.631Z,4.70
2019-02-12T03:41:25.570Z,4.70
2019-02-12T03:43:56.382Z,4.70
2019-02-12T03:46:26.668Z,4.30
2019-02-12T03:48:57.366Z,4.50
2019-02-12T03:51:27.576Z,5.10
2019-02-12T03:53:58.212Z,4.20
2019-02-12T03:56:28.795Z,1.20
2019-02-12T03:59:00.324Z,4.50
2019-02-12T04:04:01.178Z,4.50
2019-02-12T04:06:31.708Z,4.10
2019-02-12T04:09:02.020Z,4.20
2019-02-12T04:11:33.487Z,4.10
2019-02-12T04:14:03.776Z,4.10
2019-02-12T04:16:34.363Z,3.80
2019-02-12T04:19:04.645Z,4.20
2019-02-12T04:21:35.377Z,3.80
2019-02-12T04:29:08.142Z,4.30
2019-02-12T04:31:39.413Z,4.20
2019-02-12T04:36:39.135Z,4.40
2019-02-12T04:39:09.921Z,4.40
2019-02-12T04:41:40.171Z,4.40
2019-02-12T04:46:40.306Z,4.30
2019-02-12T04:51:40.248Z,4.20
2019-02-12T04:54:11.251Z,4.20
2019-02-12T04:56:41.805Z,4.40
2019-02-12T04:59:12.044Z,4.30
2019-02-12T05:04:12.318Z,3.70
2019-02-12T05:06:42.896Z,4.20
2019-02-12T05:09:20.915Z,3.70
2019-02-12T05:14:22.471Z,4.90
2019-02-12T05:19:22.967Z,4.30
2019-02-12T05:21:53.648Z,4.30
2019-02-12T05:24:23.861Z,4.40
2019-02-12T05:26:58.720Z,4.30
2019-02-12T05:29:30.861Z,4.40
2019-02-12T05:32:01.136Z,4.50
2019-02-12T05:39:31.830Z,4.50
2019-02-12T05:42:02.003Z,4.50
2019-02-12T05:49:32.395Z,4.60
2019-02-12T05:59:32.239Z,4.50
2019-02-12T06:02:02.902Z,4.50
2019-02-12T06:04:33.521Z,4.30
2019-02-12T06:12:05.713Z,4.20
2019-02-12T06:14:37.063Z,4.20
2019-02-12T06:19:56.337Z,4.20
2019-02-12T06:22:27.216Z,4.20
2019-02-12T06:24:57.507Z,4.20
2019-02-12T06:27:27.860Z,4.20
2019-02-12T06:30:03.094Z,4.30
2019-02-12T06:32:34.930Z,4.30
2019-02-12T06:35:05.359Z,4.40
2019-02-12T06:37:35.679Z,4.50
2019-02-12T06:40:06.699Z,4.60
2019-02-12T06:52:39.771Z,4.90
2019-02-12T07:03:12.333Z,5.00
2019-02-12T07:08:38.535Z,6.00
2019-02-12T07:14:08.784Z,5.20
2019-02-12T07:16:55.634Z,5.30
2019-02-12T07:19:33.620Z,5.50
2019-02-12T07:22:34.249Z,5.50
2019-02-12T07:25:51.294Z,5.50
2019-02-12T07:28:48.666Z,5.50
2019-02-12T07:34:45.323Z,5.70
2019-02-12T07:43:32.996Z,5.70
2019-02-12T07:52:26.412Z,5.90
2019-02-12T07:55:30.771Z,2.70
2019-02-12T08:01:18.074Z,6.30
2019-02-12T08:07:05.689Z,6.40
2019-02-12T08:12:57.272Z,7.10
2019-02-12T08:21:13.182Z,6.80
2019-02-12T08:24:20.414Z,7.00
2019-02-12T08:27:29.021Z,7.10
2019-02-12T08:30:45.375Z,7.20
2019-02-12T08:33:56.954Z,7.20
2019-02-12T08:42:22.886Z,7.50
2019-02-12T08:45:33.795Z,7.40
2019-02-12T08:48:27.081Z,7.70
2019-02-12T08:54:24.040Z,7.90
2019-02-12T08:57:26.810Z,8.20
2019-02-12T09:03:46.556Z,8.20
2019-02-12T09:06:46.389Z,8.10
2019-02-12T09:10:06.114Z,8.10
2019-02-12T09:13:17.124Z,8.00
2019-02-12T09:19:03.602Z,7.90
2019-02-12T09:25:06.186Z,7.60
2019-02-12T09:28:03.501Z,7.50
2019-02-12T09:31:09.160Z,7.50
2019-02-12T09:34:32.375Z,5.90
2019-02-12T09:37:36.370Z,7.40
2019-02-12T09:40:59.776Z,7.80
2019-02-12T09:47:07.307Z,7.70
2019-02-12T09:55:52.363Z,7.80
2019-02-12T09:59:27.546Z,8.10
2019-02-12T10:02:33.689Z,10.70
2019-02-12T10:05:38.963Z,7.90
2019-02-12T10:08:35.526Z,8.10
2019-02-12T10:17:08.964Z,8.20
2019-02-12T10:19:50.252Z,8.30
2019-02-12T10:22:54.484Z,8.40
2019-02-12T10:25:48.704Z,6.90
2019-02-12T10:31:41.828Z,8.70
2019-02-12T10:39:13.651Z,9.00
2019-02-12T10:41:44.123Z,9.10
2019-02-12T10:44:14.465Z,9.20
2019-02-12T10:46:44.777Z,11.20
2019-02-12T10:49:17.045Z,8.90
2019-02-12T10:54:18.109Z,9.60
2019-02-12T10:56:50.510Z,9.70
2019-02-12T10:59:20.840Z,9.80
2019-02-12T11:04:23.514Z,9.80
2019-02-12T11:09:25.282Z,9.80
2019-02-12T11:14:25.555Z,9.50
2019-02-12T11:16:58.174Z,9.40
2019-02-12T11:19:29.051Z,9.50
2019-02-12T11:21:59.570Z,9.60
2019-02-12T11:24:35.681Z,9.60
2019-02-12T11:27:04.821Z,9.60
2019-02-12T11:29:35.138Z,9.60
2019-02-12T11:32:05.573Z,9.70
2019-02-12T11:34:37.155Z,9.90
2019-02-12T11:37:07.661Z,9.90
2019-02-12T11:39:38.065Z,10.00
2019-02-12T11:44:38.556Z,10.10
2019-02-12T11:47:10.494Z,10.20
2019-02-12T11:49:44.339Z,10.20
2019-02-12T11:52:18.108Z,10.30
2019-02-12T12:02:41.979Z,10.40
2019-02-12T12:05:10.714Z,10.40
2019-02-12T12:10:10.546Z,10.30
2019-02-12T12:15:11.616Z,10.00
2019-02-12T12:17:42.249Z,10.10
2019-02-12T12:20:12.422Z,9.60
2019-02-12T12:30:13.818Z,9.90
2019-02-12T12:35:15.296Z,10.00
2019-02-12T12:40:18.741Z,10.20
2019-02-12T12:42:49.535Z,10.20
2019-02-12T12:50:22.668Z,10.30
2019-02-12T12:52:53.488Z,10.30
2019-02-12T12:55:25.382Z,10.30
2019-02-12T13:00:28.970Z,10.40
2019-02-12T13:02:59.812Z,10.40
2019-02-12T13:05:31.323Z,10.40
2019-02-12T13:08:11.290Z,10.30
2019-02-12T13:10:44.652Z,10.00
2019-02-12T13:13:17.009Z,11.10
2019-02-12T13:15:48.423Z,10.50
2019-02-12T13:18:18.556Z,10.50
2019-02-12T13:20:51.799Z,10.50
2019-02-12T13:25:51.599Z,10.40
2019-02-12T13:28:22.060Z,10.40
2019-02-12T13:30:52.329Z,10.40
2019-02-12T13:33:22.581Z,10.30
2019-02-12T13:35:53.461Z,10.30
2019-02-12T13:40:53.622Z,10.20
2019-02-12T13:43:23.882Z,10.20
2019-02-12T13:45:54.532Z,10.00
2019-02-12T13:48:24.932Z,9.80
2019-02-12T13:50:55.480Z,10.00
2019-02-12T13:58:26.415Z,10.10
2019-02-12T14:16:03.086Z,10.00
2019-02-12T14:21:05.487Z,10.00
2019-02-12T14:23:36.475Z,10.10
2019-02-12T14:26:06.896Z,10.00
2019-02-12T14:33:36.716Z,10.20
2019-02-12T14:36:07.536Z,10.50
2019-02-12T14:38:37.747Z,10.30
2019-02-12T14:41:09.435Z,10.20
2019-02-12T14:43:41.587Z,10.20
2019-02-12T14:51:11.865Z,10.30
2019-02-12T14:53:42.125Z,9.90
2019-02-12T14:58:42.864Z,9.90
2019-02-12T15:01:13.292Z,10.40
2019-02-12T15:03:45.159Z,9.90
2019-02-12T15:11:15.201Z,9.80
2019-02-12T15:13:45.553Z,9.80
2019-02-12T15:23:49.938Z,9.50
2019-02-12T15:26:20.130Z,9.40
2019-02-12T15:28:51.153Z,9.40
2019-02-12T15:31:21.589Z,9.30
2019-02-12T15:36:22.344Z,9.30
2019-02-12T15:38:52.846Z,9.10
2019-02-12T15:43:53.813Z,9.00
2019-02-12T15:53:54.725Z,8.60
2019-02-12T15:58:56.544Z,8.60
2019-02-12T16:08:59.907Z,8.10
2019-02-12T16:11:37.471Z,8.30
2019-02-12T16:14:11.791Z,8.20
2019-02-12T16:16:44.065Z,8.20
2019-02-12T16:24:16.888Z,5.20
2019-02-12T16:26:47.505Z,8.00
2019-02-12T16:34:17.262Z,7.80
2019-02-12T16:41:47.301Z,7.60
2019-02-12T16:44:18.058Z,3.50
2019-02-12T16:46:48.402Z,7.50
2019-02-12T16:49:22.593Z,7.40
2019-02-12T16:56:56.719Z,7.20
2019-02-12T16:59:27.975Z,7.30
2019-02-12T17:01:58.410Z,7.20
2019-02-12T17:04:28.716Z,7.20
2019-02-12T17:06:59.053Z,7.10
2019-02-12T17:09:29.262Z,7.10
2019-02-12T17:19:31.611Z,7.00
2019-02-12T17:22:02.139Z,6.80
2019-02-12T17:27:13.997Z,7.60
2019-02-12T17:29:44.811Z,6.80
2019-02-12T17:32:16.044Z,6.70
2019-02-12T17:34:47.501Z,6.50
2019-02-12T17:37:18.207Z,6.60
2019-02-12T17:39:48.536Z,6.40
2019-02-12T17:44:49.106Z,6.30
2019-02-12T17:49:50.250Z,6.80
2019-02-12T17:52:21.846Z,6.10
2019-02-12T17:54:52.095Z,6.00
2019-02-12T17:57:24.605Z,6.00
2019-02-12T18:05:07.251Z,5.80
2019-02-12T18:07:38.013Z,5.80
2019-02-12T18:10:08.113Z,5.70
2019-02-12T18:15:10.087Z,5.60
2019-02-12T18:22:40.669Z,5.60
2019-02-12T18:25:13.057Z,5.00
2019-02-12T18:27:43.449Z,5.50
2019-02-12T18:30:16.804Z,6.30
2019-02-12T18:37:49.120Z,4.90
2019-02-12T18:40:20.466Z,5.30
2019-02-12T18:50:21.095Z,5.20
2019-02-12T18:55:22.470Z,5.10
2019-02-12T18:57:53.066Z,5.10
2019-02-12T19:00:23.699Z,4.70
2019-02-12T19:05:24.304Z,5.10
2019-02-12T19:07:54.845Z,5.10
2019-02-12T19:10:26.978Z,5.30
2019-02-12T19:12:57.914Z,5.10
2019-02-12T19:15:28.294Z,5.00
2019-02-12T19:27:59.840Z,8.20
2019-02-12T19:30:30.118Z,4.90
2019-02-12T19:33:01.159Z,5.60
2019-02-12T19:35:33.450Z,5.60
2019-02-12T19:38:04.187Z,4.90
2019-02-12T19:40:36.372Z,5.60
2019-02-12T19:45:36.629Z,5.60
2019-02-12T19:50:36.763Z,4.90
2019-02-12T19:55:36.890Z,4.90
2019-02-12T19:58:07.742Z,5.60
2019-02-12T20:00:38.546Z,5.20
2019-02-12T20:03:09.179Z,4.80
2019-02-12T20:08:10.641Z,5.10
2019-02-12T20:13:10.366Z,5.30
2019-02-12T20:15:42.073Z,5.30
2019-02-12T20:18:12.266Z,5.30
2019-02-12T20:20:43.296Z,6.00
2019-02-12T20:23:13.446Z,5.50
2019-02-12T20:25:43.795Z,5.50
2019-02-12T20:28:15.168Z,5.50
2019-02-12T20:30:45.545Z,5.50
2019-02-12T20:33:16.266Z,5.60
2019-02-12T20:43:16.279Z,5.60
2019-02-12T20:45:46.644Z,5.30
2019-02-12T20:48:17.460Z,5.60
2019-02-12T20:50:47.979Z,5.60
2019-02-12T20:53:20.257Z,2.50
2019-02-12T20:55:50.767Z,5.30
2019-02-12T20:58:21.444Z,7.80
2019-02-12T21:03:21.557Z,5.20
2019-02-12T21:05:52.068Z,5.90
2019-02-12T21:08:22.292Z,5.10
2019-02-12T21:13:23.776Z,5.00
2019-02-12T21:20:53.792Z,5.60
2019-02-12T21:23:25.939Z,4.70
2019-02-12T21:25:56.420Z,4.90
2019-02-12T21:28:28.979Z,4.80
2019-02-12T21:30:59.319Z,5.50
2019-02-12T21:33:29.911Z,4.80
2019-02-12T21:36:00.272Z,4.80
2019-02-12T21:41:00.250Z,4.70
2019-02-12T21:43:31.763Z,5.20
2019-02-12T21:46:02.239Z,5.40
2019-02-12T21:48:32.906Z,4.70
2019-02-12T21:51:03.319Z,4.40
2019-02-12T21:56:03.902Z,4.50
2019-02-12T21:58:34.756Z,4.90
2019-02-12T22:03:35.194Z,4.30
2019-02-12T22:08:38.030Z,4.20
2019-02-12T22:13:38.194Z,3.70
2019-02-12T22:23:41.185Z,3.90
2019-02-12T22:26:11.415Z,3.80
2019-02-12T22:28:42.349Z,3.70
2019-02-12T22:33:42.143Z,3.40
2019-02-12T22:36:12.452Z,3.40
2019-02-12T22:38:43.154Z,3.30
2019-02-12T22:51:12.235Z,3.60
2019-02-12T22:53:42.811Z,3.60
2019-02-12T22:56:12.937Z,3.60
2019-02-12T22:58:43.513Z,3.40
2019-02-12T23:01:15.121Z,3.60
2019-02-12T23:03:45.642Z,3.60
2019-02-12T23:06:16.271Z,3.50
2019-02-12T23:08:46.832Z,3.50
2019-02-12T23:16:16.555Z,3.30
2019-02-12T23:18:48.053Z,3.40
2019-02-12T23:21:19.236Z,3.40
2019-02-12T23:26:19.378Z,3.30
2019-02-12T23:28:51.565Z,3.30
2019-02-12T23:31:22.014Z,3.20
2019-02-12T23:33:52.235Z,2.90
2019-02-12T23:36:22.321Z,3.10
2019-02-12T23:38:52.951Z,2.80
2019-02-12T23:43:52.943Z,3.00
2019-02-12T23:46:23.492Z,2.80
2019-02-12T23:48:56.357Z,2.90
2019-02-12T23:53:56.894Z,2.80
2019-02-12T23:58:57.084Z,2.40
